Latest Weather Observations for Cabramurra

IDN60801

Issued at 9:22 pm EST Tuesday 18 June 2024 (issued every 10 minutes, with the page automatically refreshed every 10 minutes)

About weather observations | Map of weather stations | Latest weather observations for NSW | Other Formats
Station Details ID: 072161 Name: CABRAMURRA SMHEA AWS Lat: -35.94 Lon: 148.38 Height: 1482.4 m
Data from the previous 72 hours. | See also: Recent months at Cabramurra
Date/Time
EST
Temp
°C
App
Temp
°C
Dew
Point
°C
Rel
Hum
%
Delta-T
°C
Wind Press
QNH
hPa
Press
MSL
hPa
Rain since
9am
mm
Dir  Spd
km/h
Gust
km/h
Spd
kts
Gust
kts
18/09:00pm -1.0 -5.3 -1.8 94 0.3 SSW 11 15 6 8 - - 0.0
18/08:30pm -1.2 -6.3 -2.0 94 0.2 SSW 15 17 8 9 - - 0.0
18/08:00pm -0.9 -5.6 -1.9 93 0.3 SSW 13 17 7 9 - - 0.0
18/07:30pm -1.2 -6.0 -2.2 93 0.3 S 13 15 7 8 - - 0.0
18/07:00pm -1.1 -5.5 -2.4 91 0.4 SSW 11 15 6 8 - - 0.0
18/06:30pm -0.9 -5.1 -3.6 82 0.9 S 9 13 5 7 - - 0.0
18/06:00pm -1.1 -5.3 -3.9 81 1.0 SSW 9 11 5 6 - - 0.0
18/05:30pm -0.8 -4.6 -4.0 79 1.1 SW 7 9 4 5 - - 0.0
18/05:00pm 0.1 -4.1 -4.0 74 1.5 W 9 13 5 7 - - 0.0
18/04:30pm 1.2 -3.3 -3.5 71 1.8 W 11 17 6 9 - - 0.0
18/04:00pm 1.9 -3.4 -3.6 67 2.2 W 15 19 8 10 - - 0.0
18/03:30pm 2.4 -2.5 -3.7 64 2.3 WNW 13 19 7 10 - - 0.0
18/03:00pm 2.8 -2.9 -3.7 62 2.4 W 17 24 9 13 - - 0.0
18/02:30pm 3.4 -1.5 -3.4 61 2.6 W 13 17 7 9 - - 0.0
18/02:00pm 3.0 -2.6 -3.1 64 2.3 W 17 24 9 13 - - 0.0
18/01:30pm 3.2 -2.4 -2.9 64 2.3 W 17 22 9 12 - - 0.0
18/01:00pm 2.9 -2.3 -2.6 67 2.1 WNW 15 24 8 13 - - 0.0
18/12:30pm 2.7 -2.7 -4.1 61 2.5 NW 15 20 8 11 - - 0.0
18/12:00pm 2.9 -2.0 -3.6 62 2.4 WNW 13 19 7 10 - - 0.0
18/11:30am 3.1 -1.5 -1.3 73 1.8 WNW 13 19 7 10 - - 0.0
18/11:00am 2.9 -2.0 -3.4 63 2.4 NW 13 17 7 9 - - 0.0
18/10:30am 2.7 -1.4 -3.0 66 2.2 NW 9 13 5 7 - - 0.0
18/10:00am 2.9 -0.7 -3.4 63 2.4 WNW 6 9 3 5 - - 0.0
18/09:30am 2.5 -0.2 -6.3 52 3.2 CALM 0 0 0 0 - - 0.0
18/09:00am 2.0 -0.7 -5.6 57 2.8 CALM 0 0 0 0 - - 0.0
18/08:30am 1.1 -1.3 -3.4 72 1.7 CALM 0 0 0 0 - - 0.0
18/08:00am 0.4 -1.9 -2.3 82 1.0 CALM 0 0 0 0 - - 0.0
18/07:30am -0.5 -4.1 -1.9 90 0.5 W 7 9 4 5 - - 0.0
18/07:00am -0.2 -4.1 -1.8 89 0.6 WNW 9 13 5 7 - - 0.0
18/06:30am -0.3 -4.2 -1.6 91 0.5 W 9 13 5 7 - - 0.0
18/06:00am 0.1 -3.7 -1.0 92 0.4 NW 9 11 5 6 - - 0.0
18/05:30am 0.5 -1.6 -0.9 90 0.6 CALM 0 7 0 4 - - 0.0
18/05:00am 0.2 -3.1 -0.9 92 0.4 W 6 7 3 4 - - 0.0
18/04:30am 0.5 -3.3 -0.6 92 0.4 WSW 9 13 5 7 - - 0.0
18/04:00am 0.5 -3.1 -1.9 84 0.9 SSW 7 9 4 5 - - 0.0
18/03:30am 0.6 -3.4 -2.6 79 1.2 S 9 11 5 6 - - 0.0
18/03:00am 0.9 -3.0 -1.8 82 1.1 SSW 9 11 5 6 - - 0.0
18/02:30am 1.2 -2.5 -2.9 74 1.6 S 7 9 4 5 - - 0.0
18/02:00am 1.2 -3.0 -3.8 69 1.9 SE 9 11 5 6 - - 0.0
18/01:30am 1.2 -3.7 -3.8 69 1.9 SE 13 17 7 9 - - 0.0
18/01:00am 0.6 -5.0 -3.0 77 1.4 SSE 17 22 9 12 - - 0.0
18/12:30am 0.2 -5.7 -2.0 85 0.8 SSE 19 22 10 12 - - 0.0
18/12:00am 0.6 -4.5 -2.1 82 1.1 SSE 15 24 8 13 - - 0.0
 
Date/Time
EST
Temp
°C
App
Temp
°C
Dew
Point
°C
Rel
Hum
%
Delta-T
°C
Wind Press
QNH
hPa
Press
MSL
hPa
Rain since
9am
mm
Dir  Spd
km/h
Gust
km/h
Spd
kts
Gust
kts
17/11:30pm 0.9 -4.6 -2.3 79 1.3 SSE 17 24 9 13 - - 0.0
17/11:00pm 0.8 -5.3 -2.2 80 1.2 SSE 20 30 11 16 - - 0.0
17/10:30pm -0.2 -5.2 -1.0 94 0.3 SE 15 22 8 12 - - 0.0
17/10:00pm -0.4 -5.7 -0.5 99 0.0 SSE 17 24 9 13 - - 0.0
17/09:30pm -0.5 -5.8 -0.6 99 0.0 SSE 17 28 9 15 - - 0.0
17/09:00pm -0.2 -5.5 -0.5 98 0.1 SSE 17 26 9 14 - - 0.0
17/08:30pm 0.2 -4.3 -0.5 95 0.3 SE 13 22 7 12 - - 0.0
17/08:00pm 0.2 -3.6 -0.9 92 0.4 SSE 9 15 5 8 - - 0.0
17/07:30pm 0.5 -3.7 -1.1 89 0.7 SSE 11 17 6 9 - - 0.0
17/07:00pm 1.3 -4.6 -0.9 85 0.9 SE 20 26 11 14 - - 0.0
17/06:30pm 1.4 -4.4 -1.3 82 1.1 ESE 19 22 10 12 - - 0.0
17/06:00pm 1.8 -4.0 -1.8 77 1.4 SE 19 24 10 13 - - 0.0
17/05:30pm 2.4 -2.2 -1.4 76 1.5 SE 13 19 7 10 - - 0.0
17/05:00pm 2.9 1.4 2.8 99 0.0 CALM 0 0 0 0 - - 0.0
17/04:30pm 4.2 0.9 2.4 88 0.8 W 9 15 5 8 - - 0.0
17/04:00pm 5.5 2.1 1.8 77 1.6 SW 9 17 5 9 - - 0.0
17/03:30pm 5.6 1.9 2.1 78 1.6 W 11 17 6 9 - - 0.0
17/03:00pm 6.8 2.7 2.1 72 2.1 SW 13 20 7 11 - - 0.0
17/02:30pm 7.7 4.0 2.4 69 2.4 SW 11 19 6 10 - - 0.0
17/02:00pm 6.8 2.2 -0.9 58 3.2 S 13 22 7 12 - - 0.0
17/01:30pm 6.5 1.5 -0.9 59 3.1 SSW 15 26 8 14 - - 0.0
17/01:00pm 6.7 2.2 -0.1 62 2.9 SSW 13 20 7 11 - - 0.0
17/12:30pm 5.7 0.4 -0.4 65 2.6 SSE 17 24 9 13 - - 0.0
17/12:00pm 6.0 1.2 0.1 66 2.5 SSE 15 26 8 14 - - 0.0
17/11:30am 5.6 0.3 -0.7 64 2.6 S 17 32 9 17 - - 0.0
17/11:00am 5.1 -0.6 -0.5 67 2.3 SSE 19 32 10 17 - - 0.0
17/10:30am 4.4 -3.4 -0.6 70 2.1 SE 30 39 16 21 - - 0.0
17/10:00am 4.0 -4.1 -0.2 74 1.7 SE 32 43 17 23 - - 0.0
17/09:30am 3.3 -5.4 -0.2 78 1.4 ESE 35 46 19 25 - - 0.0
17/09:00am 3.0 -6.0 -0.1 80 1.3 SE 37 54 20 29 - - 0.0
17/08:30am 2.5 -6.6 -0.3 82 1.1 SE 37 48 20 26 - - 0.0
17/08:00am 2.1 -6.2 -0.2 85 0.9 SE 33 46 18 25 - - 0.0
17/07:30am 2.0 -6.1 -0.2 85 0.9 SE 32 48 17 26 - - 0.0
17/07:00am 2.0 -4.6 -0.4 84 1.0 SE 24 33 13 18 - - 0.0
17/06:30am 1.5 -3.1 -0.9 84 1.0 SSE 13 24 7 13 - - 0.0
17/06:00am 1.2 -4.1 -0.7 87 0.8 SSE 17 28 9 15 - - 0.0
17/05:30am 0.8 -3.8 -1.0 88 0.7 S 13 19 7 10 - - 0.0
17/05:00am 1.0 -3.5 -0.6 89 0.6 S 13 22 7 12 - - 0.0
17/04:30am 1.2 -4.1 -0.4 89 0.6 S 17 30 9 16 - - 0.0
17/04:00am 0.7 -4.3 -1.1 88 0.7 S 15 28 8 15 - - 0.0
17/03:30am 1.0 -4.9 -0.8 88 0.7 SSE 20 28 11 15 - - 0.0
17/03:00am 0.3 -4.3 -0.8 92 0.4 S 13 20 7 11 - - 0.0
17/02:30am -0.1 -4.7 -0.9 94 0.3 S 13 20 7 11 - - 0.0
17/02:00am -0.1 -5.0 -0.7 96 0.2 S 15 28 8 15 - - 0.0
17/01:30am -0.8 -5.8 -0.9 99 0.0 SSW 15 22 8 12 - - 0.0
17/01:00am -1.3 -5.9 -1.4 99 0.0 SSW 13 17 7 9 - - 0.0
17/12:30am -1.8 -6.1 -1.8 100 0.0 SSW 11 13 6 7 - - 0.0
17/12:00am -2.1 -6.5 -2.1 100 0.0 SSW 11 13 6 7 - - 0.0
 
Date/Time
EST
Temp
°C
App
Temp
°C
Dew
Point
°C
Rel
Hum
%
Delta-T
°C
Wind Press
QNH
hPa
Press
MSL
hPa
Rain since
9am
mm
Dir  Spd
km/h
Gust
km/h
Spd
kts
Gust
kts
16/11:30pm -2.1 -6.5 -2.2 99 -0.1 SSW 11 13 6 7 - - 0.0
16/11:00pm -1.8 -6.1 -1.9 99 -0.1 SSE 11 13 6 7 - - 0.0
16/10:30pm -1.8 -6.5 -1.9 99 -0.1 SSW 13 17 7 9 - - 0.0
16/10:00pm -1.9 -6.2 -2.0 99 -0.1 SSW 11 15 6 8 - - 0.0
16/09:30pm -1.5 -7.3 -1.6 99 0.0 SSW 19 24 10 13 - - 0.0
16/09:00pm -1.4 -7.2 -1.5 99 0.0 SSW 19 22 10 12 - - 0.0
16/08:30pm -1.3 -6.7 -1.4 99 0.0 SW 17 20 9 11 - - 0.0
16/08:00pm -0.9 -5.9 -1.0 99 0.0 SW 15 20 8 11 - - 0.0
16/07:30pm -0.6 -5.9 -0.9 98 0.1 SSW 17 28 9 15 - - 0.0
16/07:00pm -0.5 -5.2 -1.5 93 0.4 SW 13 15 7 8 - - 0.0
16/06:30pm -0.3 -5.8 -2.0 88 0.6 SW 17 22 9 12 - - 0.0
16/06:00pm -0.3 -6.4 -2.2 87 0.7 SSW 20 28 11 15 - - 0.0
16/05:30pm -0.4 -6.0 -2.6 85 0.8 SSW 17 24 9 13 - - 0.0
16/05:00pm 0.1 -5.9 -2.9 80 1.1 SW 19 22 10 12 - - 0.0
16/04:30pm 0.5 -5.5 -2.9 78 1.3 SW 19 24 10 13 - - 0.0
16/04:00pm 1.0 -4.5 -2.1 80 1.2 WSW 17 22 9 12 - - 0.0
16/03:30pm 2.1 -3.3 -1.3 78 1.3 SW 17 20 9 11 - - 0.0
16/03:00pm 2.2 -2.4 -1.1 79 1.3 WSW 13 20 7 11 - - 0.0
16/02:30pm 2.1 -2.9 -1.3 78 1.3 WSW 15 24 8 13 - - 0.0
16/02:00pm 2.0 -3.2 -0.1 86 0.9 WSW 17 24 9 13 - - 0.0
16/01:30pm 1.5 -3.8 -0.3 88 0.7 W 17 24 9 13 - - 0.0
16/01:00pm 0.9 -3.6 -0.5 90 0.6 W 13 19 7 10 - - 0.0
16/12:30pm 1.3 -3.3 -1.3 83 1.0 WNW 13 20 7 11 - - 0.0
16/12:00pm 1.4 -2.6 -2.2 77 1.4 W 9 13 5 7 - - 0.0
16/11:30am 0.8 -3.1 -1.8 83 1.0 WSW 9 11 5 6 - - 0.0
16/11:00am 1.2 -2.3 -3.1 73 1.7 SW 6 9 3 5 - - 0.0
16/10:30am 1.3 -1.3 -5.4 61 2.4 CALM 0 9 0 5 - - 0.0
16/10:00am 0.9 -1.9 -7.1 55 2.7 CALM 0 0 0 0 - - 0.0
16/09:30am -0.2 -3.7 -6.6 62 2.1 SW 4 7 2 4 - - 0.0
16/09:00am 0.0 -2.8 -6.6 61 2.2 CALM 0 0 0 0 - - 0.0
16/08:30am -0.3 -3.0 -5.9 66 1.9 CALM 0 0 0 0 - - 0.0
16/08:00am -1.1 -3.7 -5.1 74 1.3 CALM 0 0 0 0 - - 0.0
16/07:30am -1.5 -4.2 -6.1 71 1.5 CALM 0 6 0 3 - - 0.0
16/07:00am -1.3 -5.4 -6.8 66 1.8 SE 7 11 4 6 - - 0.0
16/06:30am -1.6 -6.8 -6.3 70 1.5 SSE 13 17 7 9 - - 0.0
16/06:00am -2.0 -6.7 -5.5 77 1.1 S 11 15 6 8 - - 0.0
16/05:30am -1.5 -6.7 -5.9 72 1.4 S 13 15 7 8 - - 0.0
16/05:00am -1.5 -5.5 -5.2 76 1.2 SSE 7 11 4 6 - - 0.0
16/04:30am -0.8 -4.6 -3.5 82 0.9 SE 7 9 4 5 - - 0.0
16/04:00am -0.6 -3.6 -1.7 92 0.4 S 4 7 2 4 - - 0.0
16/03:30am -1.0 -5.4 -2.6 89 0.5 SSE 11 13 6 7 - - 0.0
16/03:00am -0.8 -4.7 -1.8 93 0.3 SSE 9 11 5 6 - - 0.0
16/02:30am -0.6 -4.7 -2.8 85 0.8 SSE 9 13 5 7 - - 0.0
16/02:00am -0.6 -5.1 -3.0 84 0.9 SSE 11 13 6 7 - - 0.0
16/01:30am -0.2 -4.7 -2.9 82 1.0 SE 11 15 6 8 - - 0.0
16/01:00am -0.3 -4.4 -2.8 83 0.9 SE 9 13 5 7 - - 0.0
16/12:30am -0.4 -4.9 -3.1 82 1.0 SE 11 15 6 8 - - 0.0
16/12:00am -0.3 -3.8 -2.7 84 0.9 SE 6 15 3 8 - - 0.0
 
Date/Time
EST
Temp
°C
App
Temp
°C
Dew
Point
°C
Rel
Hum
%
Delta-T
°C
Wind Press
QNH
hPa
Press
MSL
hPa
Rain since
9am
mm
Dir  Spd
km/h
Gust
km/h
Spd
kts
Gust
kts
15/11:30pm 0.2 -3.5 -3.0 79 1.2 SSE 7 15 4 8 - - 0.0
15/11:00pm 0.2 -3.3 -2.7 81 1.1 SE 6 9 3 5 - - 0.0
15/10:30pm 0.3 -4.4 -2.1 84 0.9 ESE 13 20 7 11 - - 0.0
15/10:00pm 0.5 -4.3 -2.2 82 1.1 ESE 13 20 7 11 - - 0.0
15/09:30pm 0.0 -5.9 -0.8 94 0.3 ESE 20 28 11 15 - - 0.0

Other formats

Comma delimited format used in spreadsheet applications
http://www.bom.gov.au/fwo/IDN60801/IDN60801.95916.axf

JavaScript Object Notation format (JSON) in row-major order
http://www.bom.gov.au/fwo/IDN60801/IDN60801.95916.json

Data quality

Most of these data are generated automatically and are frequently updated. Quality checks on data are not normally performed. It is possible for incorrect values to appear. Refer to information at About Latest Weather Observations and please check the disclaimer before using these data.